createdAt,value
2023-02-22T00:04:46.115Z,9.94
2023-02-22T00:09:46.056Z,9.99
2023-02-22T00:14:46.009Z,10.00
2023-02-22T00:19:45.981Z,10.01
2023-02-22T00:24:45.882Z,10.06
2023-02-22T00:29:45.814Z,9.88
2023-02-22T00:34:45.748Z,9.78
2023-02-22T00:39:45.710Z,9.67
2023-02-22T00:44:45.621Z,9.61
2023-02-22T00:49:45.540Z,9.56
2023-02-22T00:54:45.474Z,9.53
2023-02-22T00:59:45.400Z,9.57
2023-02-22T01:04:45.337Z,9.50
2023-02-22T01:09:45.267Z,9.48
2023-02-22T01:14:45.201Z,9.52
2023-02-22T01:19:45.149Z,9.53
2023-02-22T01:24:45.068Z,9.56
2023-02-22T01:29:44.975Z,9.58
2023-02-22T01:34:44.974Z,9.64
2023-02-22T01:39:44.875Z,9.73
2023-02-22T01:44:44.811Z,9.79
2023-02-22T01:49:44.736Z,9.79
2023-02-22T01:54:44.690Z,9.86
2023-02-22T01:59:44.913Z,9.89
2023-02-22T02:04:44.602Z,9.88
2023-02-22T02:09:44.477Z,9.91
2023-02-22T02:14:44.437Z,9.91
2023-02-22T02:19:44.358Z,9.89
2023-02-22T02:24:44.264Z,9.91
2023-02-22T02:29:44.228Z,9.91
2023-02-22T02:34:44.152Z,9.86
2023-02-22T02:39:44.087Z,9.78
2023-02-22T02:44:44.004Z,9.85
2023-02-22T02:49:43.966Z,9.89
2023-02-22T02:54:43.897Z,9.85
2023-02-22T02:59:43.868Z,9.83
2023-02-22T03:04:43.752Z,9.82
2023-02-22T03:09:43.684Z,9.81
2023-02-22T03:14:43.653Z,9.79
2023-02-22T03:19:43.565Z,9.79
2023-02-22T03:24:43.488Z,9.73
2023-02-22T03:29:43.467Z,9.64
2023-02-22T03:34:43.355Z,9.63
2023-02-22T03:39:43.341Z,9.57
2023-02-22T03:44:43.216Z,9.57
2023-02-22T03:49:43.190Z,9.57
2023-02-22T03:54:43.089Z,9.52
2023-02-22T03:59:43.083Z,9.49
2023-02-22T04:04:43.002Z,9.43
2023-02-22T04:09:42.926Z,9.40
2023-02-22T04:14:42.844Z,9.31
2023-02-22T04:19:42.802Z,9.25
2023-02-22T04:24:42.733Z,9.15
2023-02-22T04:29:42.633Z,9.01
2023-02-22T04:34:42.606Z,8.76
2023-02-22T04:39:42.561Z,8.71
2023-02-22T04:44:42.427Z,8.75
2023-02-22T04:49:42.416Z,8.73
2023-02-22T04:54:42.312Z,8.78
2023-02-22T04:59:42.269Z,8.81
2023-02-22T05:04:42.215Z,8.88
2023-02-22T05:09:42.098Z,9.04
2023-02-22T05:14:42.038Z,9.10
2023-02-22T05:19:41.974Z,9.09
2023-02-22T05:24:41.897Z,9.12
2023-02-22T05:29:41.845Z,9.23
2023-02-22T05:34:41.783Z,9.25
2023-02-22T05:39:41.732Z,9.25
2023-02-22T05:44:41.714Z,9.27
2023-02-22T05:49:41.607Z,9.25
2023-02-22T05:54:41.528Z,9.30
2023-02-22T05:59:41.487Z,9.21
2023-02-22T06:04:41.388Z,9.21
2023-02-22T06:09:41.322Z,9.15
2023-02-22T06:14:41.270Z,9.10
2023-02-22T06:19:41.193Z,9.18
2023-02-22T06:24:41.164Z,9.24
2023-02-22T06:29:41.046Z,9.32
2023-02-22T06:34:40.980Z,9.34
2023-02-22T06:39:40.916Z,9.32
2023-02-22T06:44:40.854Z,9.38
2023-02-22T06:49:40.777Z,9.39
2023-02-22T06:54:40.698Z,9.46
2023-02-22T06:59:40.684Z,9.58
2023-02-22T07:04:43.288Z,9.76
2023-02-22T07:09:40.522Z,9.83
2023-02-22T07:14:40.491Z,9.75
2023-02-22T07:19:40.406Z,9.91
2023-02-22T07:24:40.349Z,9.83
2023-02-22T07:29:40.325Z,9.82
2023-02-22T07:34:40.209Z,9.94
2023-02-22T07:39:40.172Z,10.15
2023-02-22T07:44:40.055Z,10.37
2023-02-22T07:49:39.996Z,10.58
2023-02-22T07:54:39.958Z,10.81
2023-02-22T07:59:39.924Z,11.01
2023-02-22T08:04:39.832Z,11.16
2023-02-22T08:09:39.741Z,11.28
2023-02-22T08:14:39.685Z,11.38
2023-02-22T08:19:39.616Z,11.52
2023-02-22T08:24:39.548Z,11.68
2023-02-22T08:29:39.509Z,11.85
2023-02-22T08:34:39.426Z,11.99
2023-02-22T08:39:39.387Z,12.09
2023-02-22T08:44:39.292Z,12.16
2023-02-22T08:49:39.240Z,12.34
2023-02-22T08:54:39.176Z,12.51
2023-02-22T08:59:39.085Z,12.57
2023-02-22T09:04:39.038Z,12.70
2023-02-22T09:09:38.972Z,12.79
2023-02-22T09:14:38.887Z,12.95
2023-02-22T09:19:38.825Z,13.14
2023-02-22T09:24:38.764Z,13.36
2023-02-22T09:29:38.695Z,13.25
2023-02-22T09:34:38.656Z,13.40
2023-02-22T09:39:38.589Z,13.49
2023-02-22T09:44:38.494Z,13.59
2023-02-22T09:49:38.427Z,13.73
2023-02-22T09:54:38.385Z,13.63
2023-02-22T09:59:38.286Z,13.56
2023-02-22T10:04:38.318Z,13.62
2023-02-22T10:09:38.185Z,13.89
2023-02-22T10:14:38.092Z,14.20
2023-02-22T10:19:38.022Z,14.04
2023-02-22T10:24:37.960Z,13.84
2023-02-22T10:29:37.935Z,14.04
2023-02-22T10:34:37.835Z,14.17
2023-02-22T10:39:37.802Z,14.34
2023-02-22T10:44:37.679Z,14.47
2023-02-22T10:49:37.664Z,14.53
2023-02-22T10:54:37.572Z,14.75
2023-02-22T10:59:37.483Z,14.62
2023-02-22T11:04:37.457Z,14.60
2023-02-22T11:09:37.356Z,14.65
2023-02-22T11:14:37.276Z,14.47
2023-02-22T11:19:37.213Z,14.62
2023-02-22T11:24:48.794Z,14.75
2023-02-22T11:29:38.174Z,14.78
2023-02-22T11:34:37.019Z,14.68
2023-02-22T11:39:37.008Z,14.42
2023-02-22T11:44:36.894Z,14.67
2023-02-22T11:49:36.829Z,14.87
2023-02-22T11:54:36.764Z,14.99
2023-02-22T11:59:36.718Z,15.01
2023-02-22T12:04:36.740Z,14.90
2023-02-22T12:09:36.566Z,14.74
2023-02-22T12:14:36.516Z,14.87
2023-02-22T12:19:36.427Z,14.71
2023-02-22T12:24:36.358Z,14.57
2023-02-22T12:29:36.318Z,14.64
2023-02-22T12:34:36.276Z,14.37
2023-02-22T12:39:50.761Z,14.43
2023-02-22T12:44:37.138Z,14.57
2023-02-22T12:49:36.023Z,14.65
2023-02-22T12:54:35.963Z,14.42
2023-02-22T12:59:35.894Z,14.34
2023-02-22T13:04:35.870Z,14.32
2023-02-22T13:09:35.783Z,14.19
2023-02-22T13:14:35.698Z,14.34
2023-02-22T13:19:35.642Z,14.38
2023-02-22T13:24:35.570Z,14.44
2023-02-22T13:29:35.536Z,14.50
2023-02-22T13:34:35.467Z,14.52
2023-02-22T13:39:35.396Z,14.50
2023-02-22T13:44:35.369Z,14.32
2023-02-22T13:49:35.349Z,14.24
2023-02-22T13:54:35.173Z,14.16
2023-02-22T13:59:36.284Z,14.19
2023-02-22T14:04:35.065Z,14.01
2023-02-22T14:09:34.980Z,13.91
2023-02-22T14:14:34.911Z,13.71
2023-02-22T14:19:34.877Z,13.43
2023-02-22T14:24:34.798Z,13.38
2023-02-22T14:29:34.756Z,13.20
2023-02-22T14:34:34.641Z,13.27
2023-02-22T14:39:34.580Z,13.43
2023-02-22T14:44:34.509Z,13.47
2023-02-22T14:49:34.449Z,13.47
2023-02-22T14:54:34.353Z,13.43
2023-02-22T14:59:34.385Z,13.22
2023-02-22T15:04:34.243Z,13.09
2023-02-22T15:09:34.992Z,12.93
2023-02-22T15:14:34.078Z,12.79
2023-02-22T15:19:34.029Z,12.62
2023-02-22T15:24:33.990Z,12.48
2023-02-22T15:29:34.181Z,12.31
2023-02-22T15:34:33.880Z,12.06
2023-02-22T15:39:33.788Z,12.08
2023-02-22T15:44:33.992Z,12.02
2023-02-22T15:49:33.663Z,11.85
2023-02-22T15:54:33.596Z,11.65
2023-02-22T15:59:33.567Z,11.53
2023-02-22T16:04:33.464Z,11.41
2023-02-22T16:09:33.494Z,11.24
2023-02-22T16:14:33.438Z,11.02
2023-02-22T16:19:33.358Z,10.94
2023-02-22T16:24:33.212Z,10.83
2023-02-22T16:29:33.135Z,10.74
2023-02-22T16:34:33.067Z,11.72
2023-02-22T16:39:32.992Z,11.50
2023-02-22T16:44:32.950Z,12.34
2023-02-22T16:49:32.856Z,14.13
2023-02-22T16:54:32.808Z,14.35
2023-02-22T16:59:32.729Z,13.69
2023-02-22T17:04:32.650Z,14.35
2023-02-22T17:09:32.583Z,12.70
2023-02-22T17:14:32.489Z,11.78
2023-02-22T17:19:32.445Z,11.28
2023-02-22T17:24:32.387Z,11.06
2023-02-22T17:29:32.317Z,10.84
2023-02-22T17:34:32.376Z,10.65
2023-02-22T17:39:32.270Z,10.47
2023-02-22T17:44:32.210Z,10.43
2023-02-22T17:49:32.143Z,10.36
2023-02-22T17:54:31.995Z,10.36
2023-02-22T17:59:31.992Z,10.25
2023-02-22T18:04:31.996Z,10.17
2023-02-22T18:09:31.815Z,10.06
2023-02-22T18:14:31.742Z,12.20
2023-02-22T18:19:31.684Z,13.43
2023-02-22T18:24:31.693Z,12.87
2023-02-22T18:29:31.615Z,11.54
2023-02-22T18:34:31.463Z,10.80
2023-02-22T18:39:31.402Z,10.34
2023-02-22T18:44:31.453Z,10.06
2023-02-22T18:49:31.374Z,9.91
2023-02-22T18:54:31.444Z,9.78
2023-02-22T18:59:31.263Z,9.71
2023-02-22T19:04:31.063Z,9.61
2023-02-22T19:09:31.080Z,9.57
2023-02-22T19:14:31.037Z,9.52
2023-02-22T19:19:30.867Z,9.48
2023-02-22T19:24:30.836Z,9.42
2023-02-22T19:29:30.802Z,9.42
2023-02-22T19:34:30.724Z,9.40
2023-02-22T19:39:30.609Z,9.38
2023-02-22T19:44:30.536Z,9.28
2023-02-22T19:49:30.530Z,9.25
2023-02-22T19:54:30.423Z,9.20
2023-02-22T19:59:30.332Z,9.23
2023-02-22T20:04:30.303Z,9.16
2023-02-22T20:09:30.305Z,9.12
2023-02-22T20:14:30.189Z,9.09
2023-02-22T20:19:30.129Z,9.04
2023-02-22T20:24:30.034Z,8.96
2023-02-22T20:29:29.984Z,8.94
2023-02-22T20:34:29.919Z,8.88
2023-02-22T20:39:29.864Z,8.86
2023-02-22T20:44:29.745Z,8.81
2023-02-22T20:49:29.713Z,8.73
2023-02-22T20:54:29.632Z,8.66
2023-02-22T20:59:29.579Z,8.68
2023-02-22T21:04:29.530Z,8.68
2023-02-22T21:09:29.463Z,8.75
2023-02-22T21:14:29.410Z,8.76
2023-02-22T21:19:29.327Z,8.83
2023-02-22T21:24:29.285Z,8.90
2023-02-22T21:29:29.243Z,8.86
2023-02-22T21:34:29.139Z,8.81
2023-02-22T21:39:29.044Z,8.84
2023-02-22T21:44:28.980Z,8.87
2023-02-22T21:49:28.939Z,8.86
2023-02-22T21:54:28.885Z,8.87
2023-02-22T21:59:28.798Z,8.90
2023-02-22T22:04:28.784Z,8.87
2023-02-22T22:09:28.673Z,8.87
2023-02-22T22:14:28.643Z,8.81
2023-02-22T22:19:28.544Z,8.81
2023-02-22T22:24:28.476Z,8.83
2023-02-22T22:29:28.446Z,8.76
2023-02-22T22:34:28.336Z,8.75
2023-02-22T22:39:28.270Z,8.73
2023-02-22T22:44:28.191Z,8.75
2023-02-22T22:49:28.117Z,8.76
2023-02-22T22:54:28.039Z,8.65
2023-02-22T22:59:28.004Z,8.65
2023-02-22T23:04:27.913Z,8.65
2023-02-22T23:09:27.865Z,8.58
2023-02-22T23:14:27.783Z,8.63
2023-02-22T23:19:27.764Z,8.58
2023-02-22T23:24:27.929Z,8.58
2023-02-22T23:29:27.628Z,8.55
2023-02-22T23:34:27.570Z,8.51
2023-02-22T23:39:27.481Z,8.40
2023-02-22T23:44:27.695Z,8.29
2023-02-22T23:49:27.349Z,8.20
2023-02-22T23:54:27.268Z,8.07
2023-02-22T23:59:27.299Z,7.94
